sensor_id;sensor_type;location;lat;lon;timestamp;P1;durP1;ratioP1;P2;durP2;ratioP2
21305;SDS011;10812;51.838;5.838;2023-05-07T00:06:45;5.50;;;3.27;;
21305;SDS011;10812;51.838;5.838;2023-05-07T00:09:13;7.67;;;5.83;;
21305;SDS011;10812;51.838;5.838;2023-05-07T00:11:42;5.20;;;3.90;;
21305;SDS011;10812;51.838;5.838;2023-05-07T00:14:10;6.30;;;4.03;;
21305;SDS011;10812;51.838;5.838;2023-05-07T00:16:38;5.00;;;3.60;;
21305;SDS011;10812;51.838;5.838;2023-05-07T00:19:07;5.03;;;3.53;;
21305;SDS011;10812;51.838;5.838;2023-05-07T00:21:35;5.03;;;3.47;;
21305;SDS011;10812;51.838;5.838;2023-05-07T00:24:04;6.10;;;3.60;;
21305;SDS011;10812;51.838;5.838;2023-05-07T00:26:33;3.53;;;3.23;;
21305;SDS011;10812;51.838;5.838;2023-05-07T00:29:01;6.63;;;3.60;;
21305;SDS011;10812;51.838;5.838;2023-05-07T00:31:29;5.07;;;3.83;;
21305;SDS011;10812;51.838;5.838;2023-05-07T00:33:57;5.83;;;4.40;;
21305;SDS011;10812;51.838;5.838;2023-05-07T00:36:25;4.00;;;3.70;;
21305;SDS011;10812;51.838;5.838;2023-05-07T00:38:53;7.97;;;4.33;;
21305;SDS011;10812;51.838;5.838;2023-05-07T00:41:23;7.03;;;4.57;;
21305;SDS011;10812;51.838;5.838;2023-05-07T00:43:52;7.33;;;4.63;;
21305;SDS011;10812;51.838;5.838;2023-05-07T00:46:20;5.47;;;4.63;;
21305;SDS011;10812;51.838;5.838;2023-05-07T00:48:49;8.07;;;5.23;;
21305;SDS011;10812;51.838;5.838;2023-05-07T00:51:17;7.07;;;5.97;;
21305;SDS011;10812;51.838;5.838;2023-05-07T00:53:46;8.50;;;6.30;;
21305;SDS011;10812;51.838;5.838;2023-05-07T00:56:14;9.50;;;6.87;;
21305;SDS011;10812;51.838;5.838;2023-05-07T00:58:44;8.80;;;6.63;;
21305;SDS011;10812;51.838;5.838;2023-05-07T01:01:12;9.13;;;7.43;;
21305;SDS011;10812;51.838;5.838;2023-05-07T01:03:42;9.33;;;8.17;;
21305;SDS011;10812;51.838;5.838;2023-05-07T01:06:11;9.23;;;7.03;;
21305;SDS011;10812;51.838;5.838;2023-05-07T01:08:43;9.67;;;7.93;;
21305;SDS011;10812;51.838;5.838;2023-05-07T01:11:12;10.80;;;8.27;;
21305;SDS011;10812;51.838;5.838;2023-05-07T01:13:41;12.20;;;8.87;;
21305;SDS011;10812;51.838;5.838;2023-05-07T01:16:10;14.20;;;9.70;;
21305;SDS011;10812;51.838;5.838;2023-05-07T01:18:39;11.07;;;9.30;;
21305;SDS011;10812;51.838;5.838;2023-05-07T01:21:07;11.10;;;9.07;;
21305;SDS011;10812;51.838;5.838;2023-05-07T01:23:39;10.57;;;9.53;;
21305;SDS011;10812;51.838;5.838;2023-05-07T01:26:08;11.37;;;9.70;;
21305;SDS011;10812;51.838;5.838;2023-05-07T01:42:49;13.10;;;10.27;;
21305;SDS011;10812;51.838;5.838;2023-05-07T01:45:17;11.33;;;10.13;;
21305;SDS011;10812;51.838;5.838;2023-05-07T01:47:46;12.47;;;10.00;;
21305;SDS011;10812;51.838;5.838;2023-05-07T01:50:14;11.20;;;10.00;;
21305;SDS011;10812;51.838;5.838;2023-05-07T01:52:44;12.77;;;10.80;;
21305;SDS011;10812;51.838;5.838;2023-05-07T01:55:12;11.70;;;10.43;;
21305;SDS011;10812;51.838;5.838;2023-05-07T01:57:42;12.03;;;10.27;;
21305;SDS011;10812;51.838;5.838;2023-05-07T02:00:10;11.27;;;10.07;;
21305;SDS011;10812;51.838;5.838;2023-05-07T02:02:39;10.77;;;9.67;;
21305;SDS011;10812;51.838;5.838;2023-05-07T02:05:07;12.67;;;9.67;;
21305;SDS011;10812;51.838;5.838;2023-05-07T02:07:36;10.33;;;9.23;;
21305;SDS011;10812;51.838;5.838;2023-05-07T02:10:04;12.33;;;10.50;;
21305;SDS011;10812;51.838;5.838;2023-05-07T02:12:33;12.67;;;10.57;;
21305;SDS011;10812;51.838;5.838;2023-05-07T02:15:03;12.07;;;10.10;;
21305;SDS011;10812;51.838;5.838;2023-05-07T02:17:32;9.63;;;8.70;;
21305;SDS011;10812;51.838;5.838;2023-05-07T02:20:01;9.83;;;8.77;;
21305;SDS011;10812;51.838;5.838;2023-05-07T02:22:30;10.40;;;9.30;;
21305;SDS011;10812;51.838;5.838;2023-05-07T02:24:59;11.07;;;9.00;;
21305;SDS011;10812;51.838;5.838;2023-05-07T02:27:27;12.17;;;9.97;;
21305;SDS011;10812;51.838;5.838;2023-05-07T02:29:55;10.00;;;8.53;;
21305;SDS011;10812;51.838;5.838;2023-05-07T02:32:24;9.93;;;8.57;;
21305;SDS011;10812;51.838;5.838;2023-05-07T02:42:34;11.60;;;10.17;;
21305;SDS011;10812;51.838;5.838;2023-05-07T02:45:02;12.63;;;11.37;;
21305;SDS011;10812;51.838;5.838;2023-05-07T02:47:32;17.77;;;12.33;;
21305;SDS011;10812;51.838;5.838;2023-05-07T02:50:01;24.77;;;22.07;;
21305;SDS011;10812;51.838;5.838;2023-05-07T02:52:29;17.07;;;15.03;;
21305;SDS011;10812;51.838;5.838;2023-05-07T02:54:57;16.43;;;14.17;;
21305;SDS011;10812;51.838;5.838;2023-05-07T02:57:25;16.87;;;15.03;;
21305;SDS011;10812;51.838;5.838;2023-05-07T02:59:54;17.27;;;14.30;;
21305;SDS011;10812;51.838;5.838;2023-05-07T03:07:54;16.63;;;14.93;;
21305;SDS011;10812;51.838;5.838;2023-05-07T03:10:22;20.17;;;16.73;;
21305;SDS011;10812;51.838;5.838;2023-05-07T03:12:50;19.70;;;15.57;;
21305;SDS011;10812;51.838;5.838;2023-05-07T03:15:18;19.83;;;17.00;;
21305;SDS011;10812;51.838;5.838;2023-05-07T03:17:46;18.67;;;16.63;;
21305;SDS011;10812;51.838;5.838;2023-05-07T03:20:15;18.77;;;16.83;;
21305;SDS011;10812;51.838;5.838;2023-05-07T03:22:43;19.87;;;16.47;;
21305;SDS011;10812;51.838;5.838;2023-05-07T03:25:13;18.87;;;16.83;;
21305;SDS011;10812;51.838;5.838;2023-05-07T03:27:41;19.43;;;17.33;;
21305;SDS011;10812;51.838;5.838;2023-05-07T03:30:10;21.37;;;17.33;;
21305;SDS011;10812;51.838;5.838;2023-05-07T03:32:39;20.70;;;16.77;;
21305;SDS011;10812;51.838;5.838;2023-05-07T03:35:07;18.90;;;16.90;;
21305;SDS011;10812;51.838;5.838;2023-05-07T03:37:36;18.37;;;16.13;;
21305;SDS011;10812;51.838;5.838;2023-05-07T03:40:05;19.63;;;15.50;;
21305;SDS011;10812;51.838;5.838;2023-05-07T03:42:38;17.40;;;15.43;;
21305;SDS011;10812;51.838;5.838;2023-05-07T03:45:07;16.93;;;14.33;;
21305;SDS011;10812;51.838;5.838;2023-05-07T03:47:36;17.70;;;15.80;;
21305;SDS011;10812;51.838;5.838;2023-05-07T03:50:04;15.43;;;13.80;;
21305;SDS011;10812;51.838;5.838;2023-05-07T03:52:32;15.30;;;13.67;;
21305;SDS011;10812;51.838;5.838;2023-05-07T03:55:01;16.53;;;14.33;;
21305;SDS011;10812;51.838;5.838;2023-05-07T03:57:29;15.83;;;14.17;;
21305;SDS011;10812;51.838;5.838;2023-05-07T04:02:51;16.17;;;14.47;;
21305;SDS011;10812;51.838;5.838;2023-05-07T04:05:19;17.33;;;14.37;;
21305;SDS011;10812;51.838;5.838;2023-05-07T04:07:47;16.00;;;14.30;;
21305;SDS011;10812;51.838;5.838;2023-05-07T04:10:15;17.50;;;13.93;;
21305;SDS011;10812;51.838;5.838;2023-05-07T04:12:43;17.73;;;15.83;;
21305;SDS011;10812;51.838;5.838;2023-05-07T04:15:12;16.47;;;14.27;;
21305;SDS011;10812;51.838;5.838;2023-05-07T04:17:41;17.90;;;15.07;;
21305;SDS011;10812;51.838;5.838;2023-05-07T04:20:10;16.70;;;15.00;;
21305;SDS011;10812;51.838;5.838;2023-05-07T04:22:42;17.53;;;15.23;;
21305;SDS011;10812;51.838;5.838;2023-05-07T04:25:10;17.07;;;15.03;;
21305;SDS011;10812;51.838;5.838;2023-05-07T04:27:39;20.73;;;15.97;;
21305;SDS011;10812;51.838;5.838;2023-05-07T04:30:07;20.33;;;16.40;;
21305;SDS011;10812;51.838;5.838;2023-05-07T04:32:36;17.83;;;14.80;;
21305;SDS011;10812;51.838;5.838;2023-05-07T04:38:20;19.77;;;15.77;;
21305;SDS011;10812;51.838;5.838;2023-05-07T04:40:49;20.77;;;16.87;;
21305;SDS011;10812;51.838;5.838;2023-05-07T04:43:18;18.87;;;16.90;;
21305;SDS011;10812;51.838;5.838;2023-05-07T04:45:46;20.03;;;16.17;;
21305;SDS011;10812;51.838;5.838;2023-05-07T04:48:15;18.37;;;14.80;;
21305;SDS011;10812;51.838;5.838;2023-05-07T04:50:46;20.83;;;17.27;;
21305;SDS011;10812;51.838;5.838;2023-05-07T04:53:15;20.17;;;15.80;;
21305;SDS011;10812;51.838;5.838;2023-05-07T04:55:45;19.43;;;16.10;;
21305;SDS011;10812;51.838;5.838;2023-05-07T04:58:13;19.37;;;15.70;;
21305;SDS011;10812;51.838;5.838;2023-05-07T05:00:41;18.50;;;16.57;;
21305;SDS011;10812;51.838;5.838;2023-05-07T05:03:10;19.13;;;16.73;;
21305;SDS011;10812;51.838;5.838;2023-05-07T05:05:38;20.70;;;18.10;;
21305;SDS011;10812;51.838;5.838;2023-05-07T05:08:06;19.37;;;16.80;;
21305;SDS011;10812;51.838;5.838;2023-05-07T05:10:34;19.10;;;16.43;;
21305;SDS011;10812;51.838;5.838;2023-05-07T05:13:04;23.00;;;18.50;;
21305;SDS011;10812;51.838;5.838;2023-05-07T05:15:32;19.17;;;16.97;;
21305;SDS011;10812;51.838;5.838;2023-05-07T05:18:00;18.67;;;16.73;;
21305;SDS011;10812;51.838;5.838;2023-05-07T05:20:28;18.67;;;16.30;;
21305;SDS011;10812;51.838;5.838;2023-05-07T05:22:56;17.73;;;15.87;;
21305;SDS011;10812;51.838;5.838;2023-05-07T05:25:24;18.07;;;15.53;;
21305;SDS011;10812;51.838;5.838;2023-05-07T05:27:53;20.13;;;16.13;;
21305;SDS011;10812;51.838;5.838;2023-05-07T05:34:14;20.57;;;16.10;;
21305;SDS011;10812;51.838;5.838;2023-05-07T05:36:42;17.63;;;15.13;;
21305;SDS011;10812;51.838;5.838;2023-05-07T05:39:10;17.17;;;15.27;;
21305;SDS011;10812;51.838;5.838;2023-05-07T05:41:39;17.77;;;15.30;;
21305;SDS011;10812;51.838;5.838;2023-05-07T05:44:07;18.53;;;16.37;;
21305;SDS011;10812;51.838;5.838;2023-05-07T05:46:35;18.47;;;15.73;;
21305;SDS011;10812;51.838;5.838;2023-05-07T05:49:03;21.13;;;16.70;;
21305;SDS011;10812;51.838;5.838;2023-05-07T05:51:32;18.57;;;15.40;;
21305;SDS011;10812;51.838;5.838;2023-05-07T05:54:00;16.00;;;14.30;;
21305;SDS011;10812;51.838;5.838;2023-05-07T05:56:29;16.83;;;14.73;;
21305;SDS011;10812;51.838;5.838;2023-05-07T05:58:57;17.73;;;15.83;;
21305;SDS011;10812;51.838;5.838;2023-05-07T06:01:25;19.53;;;16.03;;
21305;SDS011;10812;51.838;5.838;2023-05-07T06:03:53;17.67;;;15.77;;
21305;SDS011;10812;51.838;5.838;2023-05-07T06:06:21;18.80;;;15.43;;
21305;SDS011;10812;51.838;5.838;2023-05-07T06:08:51;15.67;;;14.03;;
21305;SDS011;10812;51.838;5.838;2023-05-07T06:11:19;17.03;;;14.67;;
21305;SDS011;10812;51.838;5.838;2023-05-07T06:13:47;16.73;;;14.30;;
21305;SDS011;10812;51.838;5.838;2023-05-07T06:16:15;15.97;;;14.03;;
21305;SDS011;10812;51.838;5.838;2023-05-07T06:18:44;15.57;;;13.50;;
21305;SDS011;10812;51.838;5.838;2023-05-07T06:21:13;18.47;;;14.13;;
21305;SDS011;10812;51.838;5.838;2023-05-07T06:23:41;17.73;;;15.47;;
21305;SDS011;10812;51.838;5.838;2023-05-07T06:26:10;18.67;;;15.63;;
21305;SDS011;10812;51.838;5.838;2023-05-07T06:28:38;18.27;;;16.03;;
21305;SDS011;10812;51.838;5.838;2023-05-07T06:31:13;19.57;;;15.47;;
21305;SDS011;10812;51.838;5.838;2023-05-07T06:33:42;18.10;;;16.13;;
21305;SDS011;10812;51.838;5.838;2023-05-07T06:36:11;18.37;;;16.40;;
21305;SDS011;10812;51.838;5.838;2023-05-07T06:38:39;18.17;;;15.40;;
21305;SDS011;10812;51.838;5.838;2023-05-07T06:41:08;17.73;;;15.73;;
21305;SDS011;10812;51.838;5.838;2023-05-07T06:43:37;17.90;;;15.83;;
21305;SDS011;10812;51.838;5.838;2023-05-07T06:46:05;19.43;;;16.03;;
21305;SDS011;10812;51.838;5.838;2023-05-07T06:48:34;19.33;;;16.43;;
21305;SDS011;10812;51.838;5.838;2023-05-07T06:51:02;20.27;;;16.40;;
21305;SDS011;10812;51.838;5.838;2023-05-07T06:53:30;19.37;;;16.50;;
21305;SDS011;10812;51.838;5.838;2023-05-07T06:55:58;20.53;;;17.90;;
21305;SDS011;10812;51.838;5.838;2023-05-07T06:58:26;18.17;;;15.20;;
21305;SDS011;10812;51.838;5.838;2023-05-07T07:00:56;18.77;;;16.77;;
21305;SDS011;10812;51.838;5.838;2023-05-07T07:03:24;17.90;;;16.00;;
21305;SDS011;10812;51.838;5.838;2023-05-07T07:05:52;19.10;;;15.57;;
21305;SDS011;10812;51.838;5.838;2023-05-07T07:08:21;17.63;;;15.40;;
21305;SDS011;10812;51.838;5.838;2023-05-07T07:10:49;18.37;;;16.33;;
21305;SDS011;10812;51.838;5.838;2023-05-07T07:13:17;17.00;;;15.20;;
21305;SDS011;10812;51.838;5.838;2023-05-07T07:15:46;17.37;;;14.97;;
21305;SDS011;10812;51.838;5.838;2023-05-07T07:18:15;16.77;;;15.03;;
21305;SDS011;10812;51.838;5.838;2023-05-07T07:20:43;16.93;;;14.97;;
21305;SDS011;10812;51.838;5.838;2023-05-07T07:23:11;16.83;;;14.90;;
21305;SDS011;10812;51.838;5.838;2023-05-07T07:25:40;17.08;;;15.10;;
21305;SDS011;10812;51.838;5.838;2023-05-07T07:28:08;18.93;;;15.97;;
21305;SDS011;10812;51.838;5.838;2023-05-07T07:30:37;18.53;;;14.80;;
21305;SDS011;10812;51.838;5.838;2023-05-07T07:33:05;16.23;;;13.73;;
21305;SDS011;10812;51.838;5.838;2023-05-07T07:35:35;18.37;;;14.67;;
21305;SDS011;10812;51.838;5.838;2023-05-07T07:38:03;16.37;;;14.30;;
21305;SDS011;10812;51.838;5.838;2023-05-07T07:40:31;17.23;;;14.07;;
21305;SDS011;10812;51.838;5.838;2023-05-07T07:43:01;17.30;;;14.57;;
21305;SDS011;10812;51.838;5.838;2023-05-07T07:45:29;15.60;;;13.90;;
21305;SDS011;10812;51.838;5.838;2023-05-07T07:47:57;16.77;;;14.33;;
21305;SDS011;10812;51.838;5.838;2023-05-07T07:50:25;15.07;;;12.93;;
21305;SDS011;10812;51.838;5.838;2023-05-07T07:53:12;16.30;;;14.27;;
21305;SDS011;10812;51.838;5.838;2023-05-07T07:55:40;18.33;;;13.98;;
21305;SDS011;10812;51.838;5.838;2023-05-07T07:58:08;14.82;;;12.77;;
21305;SDS011;10812;51.838;5.838;2023-05-07T08:00:36;13.47;;;12.10;;
21305;SDS011;10812;51.838;5.838;2023-05-07T08:03:04;14.20;;;12.10;;
21305;SDS011;10812;51.838;5.838;2023-05-07T08:05:34;12.43;;;11.18;;
21305;SDS011;10812;51.838;5.838;2023-05-07T08:08:02;14.45;;;11.70;;
21305;SDS011;10812;51.838;5.838;2023-05-07T08:10:33;13.57;;;11.77;;
21305;SDS011;10812;51.838;5.838;2023-05-07T08:13:04;13.98;;;11.45;;
21305;SDS011;10812;51.838;5.838;2023-05-07T08:15:33;13.30;;;11.90;;
21305;SDS011;10812;51.838;5.838;2023-05-07T08:18:01;14.40;;;12.90;;
21305;SDS011;10812;51.838;5.838;2023-05-07T08:20:30;14.43;;;12.93;;
21305;SDS011;10812;51.838;5.838;2023-05-07T08:22:58;13.80;;;12.07;;
21305;SDS011;10812;51.838;5.838;2023-05-07T08:25:26;13.38;;;12.05;;
21305;SDS011;10812;51.838;5.838;2023-05-07T08:27:56;13.65;;;11.93;;
21305;SDS011;10812;51.838;5.838;2023-05-07T08:30:24;13.10;;;11.63;;
21305;SDS011;10812;51.838;5.838;2023-05-07T08:32:53;13.77;;;12.07;;
21305;SDS011;10812;51.838;5.838;2023-05-07T08:35:21;14.15;;;11.65;;
21305;SDS011;10812;51.838;5.838;2023-05-07T08:37:49;11.13;;;9.98;;
21305;SDS011;10812;51.838;5.838;2023-05-07T08:40:18;11.85;;;9.55;;
21305;SDS011;10812;51.838;5.838;2023-05-07T08:42:48;10.10;;;8.88;;
21305;SDS011;10812;51.838;5.838;2023-05-07T08:45:20;10.57;;;9.48;;
21305;SDS011;10812;51.838;5.838;2023-05-07T08:47:51;10.60;;;9.30;;
21305;SDS011;10812;51.838;5.838;2023-05-07T08:50:24;10.23;;;8.95;;
21305;SDS011;10812;51.838;5.838;2023-05-07T08:52:52;10.40;;;9.40;;
21305;SDS011;10812;51.838;5.838;2023-05-07T08:55:20;11.30;;;8.75;;
21305;SDS011;10812;51.838;5.838;2023-05-07T08:57:50;8.95;;;8.02;;
21305;SDS011;10812;51.838;5.838;2023-05-07T09:00:20;9.32;;;8.32;;
21305;SDS011;10812;51.838;5.838;2023-05-07T09:02:48;9.70;;;8.15;;
21305;SDS011;10812;51.838;5.838;2023-05-07T09:05:17;9.55;;;8.52;;
21305;SDS011;10812;51.838;5.838;2023-05-07T09:07:45;12.13;;;8.05;;
21305;SDS011;10812;51.838;5.838;2023-05-07T09:10:14;10.25;;;7.93;;
21305;SDS011;10812;51.838;5.838;2023-05-07T09:12:42;8.00;;;6.90;;
21305;SDS011;10812;51.838;5.838;2023-05-07T09:15:10;8.52;;;7.72;;
21305;SDS011;10812;51.838;5.838;2023-05-07T09:17:40;8.63;;;7.72;;
21305;SDS011;10812;51.838;5.838;2023-05-07T09:20:10;8.02;;;7.22;;
21305;SDS011;10812;51.838;5.838;2023-05-07T09:22:38;9.55;;;7.55;;
21305;SDS011;10812;51.838;5.838;2023-05-07T09:25:07;8.65;;;7.43;;
21305;SDS011;10812;51.838;5.838;2023-05-07T09:27:36;8.35;;;7.55;;
21305;SDS011;10812;51.838;5.838;2023-05-07T09:30:05;7.68;;;6.75;;
21305;SDS011;10812;51.838;5.838;2023-05-07T09:32:35;9.50;;;7.70;;
21305;SDS011;10812;51.838;5.838;2023-05-07T09:35:06;10.90;;;6.93;;
21305;SDS011;10812;51.838;5.838;2023-05-07T09:37:43;9.25;;;6.80;;
21305;SDS011;10812;51.838;5.838;2023-05-07T09:40:19;8.75;;;6.88;;
21305;SDS011;10812;51.838;5.838;2023-05-07T09:42:48;8.00;;;6.75;;
21305;SDS011;10812;51.838;5.838;2023-05-07T09:45:21;6.82;;;6.22;;
21305;SDS011;10812;51.838;5.838;2023-05-07T09:47:49;8.18;;;6.22;;
21305;SDS011;10812;51.838;5.838;2023-05-07T09:50:25;7.70;;;6.90;;
21305;SDS011;10812;51.838;5.838;2023-05-07T09:52:57;6.72;;;6.10;;
21305;SDS011;10812;51.838;5.838;2023-05-07T09:55:25;7.43;;;6.55;;
21305;SDS011;10812;51.838;5.838;2023-05-07T09:57:53;7.25;;;6.55;;
21305;SDS011;10812;51.838;5.838;2023-05-07T10:00:22;7.28;;;6.57;;
21305;SDS011;10812;51.838;5.838;2023-05-07T10:02:51;7.10;;;6.40;;
21305;SDS011;10812;51.838;5.838;2023-05-07T10:05:20;7.32;;;6.63;;
21305;SDS011;10812;51.838;5.838;2023-05-07T10:07:50;6.85;;;6.15;;
21305;SDS011;10812;51.838;5.838;2023-05-07T10:10:20;7.35;;;6.47;;
21305;SDS011;10812;51.838;5.838;2023-05-07T10:12:49;8.63;;;7.75;;
21305;SDS011;10812;51.838;5.838;2023-05-07T10:15:18;8.10;;;7.30;;
21305;SDS011;10812;51.838;5.838;2023-05-07T10:29:25;7.55;;;5.50;;
21305;SDS011;10812;51.838;5.838;2023-05-07T10:32:10;9.57;;;6.55;;
21305;SDS011;10812;51.838;5.838;2023-05-07T10:35:00;7.25;;;5.57;;
21305;SDS011;10812;51.838;5.838;2023-05-07T10:49:12;6.68;;;5.45;;
21305;SDS011;10812;51.838;5.838;2023-05-07T10:51:41;5.43;;;4.90;;
21305;SDS011;10812;51.838;5.838;2023-05-07T10:54:18;6.43;;;5.60;;
21305;SDS011;10812;51.838;5.838;2023-05-07T10:56:50;5.80;;;4.85;;
21305;SDS011;10812;51.838;5.838;2023-05-07T10:59:29;7.05;;;5.43;;
21305;SDS011;10812;51.838;5.838;2023-05-07T11:02:00;6.90;;;5.63;;
21305;SDS011;10812;51.838;5.838;2023-05-07T11:04:32;6.15;;;5.05;;
21305;SDS011;10812;51.838;5.838;2023-05-07T11:10:03;6.57;;;5.45;;
21305;SDS011;10812;51.838;5.838;2023-05-07T11:12:46;5.97;;;5.35;;
21305;SDS011;10812;51.838;5.838;2023-05-07T11:15:32;5.47;;;4.97;;
21305;SDS011;10812;51.838;5.838;2023-05-07T11:18:05;7.20;;;5.50;;
21305;SDS011;10812;51.838;5.838;2023-05-07T11:26:43;5.03;;;4.53;;
21305;SDS011;10812;51.838;5.838;2023-05-07T11:29:13;5.32;;;4.38;;
21305;SDS011;10812;51.838;5.838;2023-05-07T11:31:48;5.32;;;4.50;;
21305;SDS011;10812;51.838;5.838;2023-05-07T11:34:20;5.28;;;4.47;;
21305;SDS011;10812;51.838;5.838;2023-05-07T11:36:51;5.38;;;4.25;;
21305;SDS011;10812;51.838;5.838;2023-05-07T11:46:06;5.95;;;5.32;;
21305;SDS011;10812;51.838;5.838;2023-05-07T11:48:37;7.07;;;5.32;;
21305;SDS011;10812;51.838;5.838;2023-05-07T11:51:06;7.25;;;5.30;;
21305;SDS011;10812;51.838;5.838;2023-05-07T11:53:40;6.10;;;4.82;;
21305;SDS011;10812;51.838;5.838;2023-05-07T11:56:09;6.43;;;5.82;;
21305;SDS011;10812;51.838;5.838;2023-05-07T11:58:39;5.82;;;5.30;;
21305;SDS011;10812;51.838;5.838;2023-05-07T12:01:08;5.65;;;5.10;;
21305;SDS011;10812;51.838;5.838;2023-05-07T12:03:37;8.70;;;5.38;;
21305;SDS011;10812;51.838;5.838;2023-05-07T12:06:09;8.07;;;5.82;;
21305;SDS011;10812;51.838;5.838;2023-05-07T12:08:39;6.85;;;5.53;;
21305;SDS011;10812;51.838;5.838;2023-05-07T12:11:12;5.75;;;5.25;;
21305;SDS011;10812;51.838;5.838;2023-05-07T12:13:43;6.18;;;5.25;;
21305;SDS011;10812;51.838;5.838;2023-05-07T12:16:12;5.97;;;5.38;;
21305;SDS011;10812;51.838;5.838;2023-05-07T12:18:40;8.07;;;6.30;;
21305;SDS011;10812;51.838;5.838;2023-05-07T12:21:08;7.15;;;5.35;;
21305;SDS011;10812;51.838;5.838;2023-05-07T12:23:37;7.10;;;5.85;;
21305;SDS011;10812;51.838;5.838;2023-05-07T12:26:07;5.20;;;4.70;;
21305;SDS011;10812;51.838;5.838;2023-05-07T12:32:27;6.38;;;5.35;;
21305;SDS011;10812;51.838;5.838;2023-05-07T12:38:48;5.95;;;5.40;;
21305;SDS011;10812;51.838;5.838;2023-05-07T12:41:17;6.95;;;5.80;;
21305;SDS011;10812;51.838;5.838;2023-05-07T12:43:51;7.28;;;5.57;;
21305;SDS011;10812;51.838;5.838;2023-05-07T12:46:24;6.38;;;5.28;;
21305;SDS011;10812;51.838;5.838;2023-05-07T12:48:52;7.70;;;4.95;;
21305;SDS011;10812;51.838;5.838;2023-05-07T12:51:21;6.88;;;5.13;;
21305;SDS011;10812;51.838;5.838;2023-05-07T12:53:51;6.22;;;5.57;;
21305;SDS011;10812;51.838;5.838;2023-05-07T12:56:23;6.90;;;5.70;;
21305;SDS011;10812;51.838;5.838;2023-05-07T12:58:51;6.30;;;5.55;;
21305;SDS011;10812;51.838;5.838;2023-05-07T13:01:28;6.38;;;5.70;;
21305;SDS011;10812;51.838;5.838;2023-05-07T13:04:00;6.38;;;5.25;;
21305;SDS011;10812;51.838;5.838;2023-05-07T13:06:29;6.57;;;5.32;;
21305;SDS011;10812;51.838;5.838;2023-05-07T13:08:59;8.15;;;6.00;;
21305;SDS011;10812;51.838;5.838;2023-05-07T13:11:27;6.75;;;5.57;;
21305;SDS011;10812;51.838;5.838;2023-05-07T13:13:56;5.65;;;4.82;;
21305;SDS011;10812;51.838;5.838;2023-05-07T13:16:24;6.30;;;4.68;;
21305;SDS011;10812;51.838;5.838;2023-05-07T13:18:52;6.32;;;5.15;;
21305;SDS011;10812;51.838;5.838;2023-05-07T13:21:20;5.53;;;4.90;;
21305;SDS011;10812;51.838;5.838;2023-05-07T13:23:48;5.57;;;5.07;;
21305;SDS011;10812;51.838;5.838;2023-05-07T13:26:18;7.18;;;5.07;;
21305;SDS011;10812;51.838;5.838;2023-05-07T13:28:52;5.97;;;4.85;;
21305;SDS011;10812;51.838;5.838;2023-05-07T13:31:21;6.95;;;4.07;;
21305;SDS011;10812;51.838;5.838;2023-05-07T13:33:49;3.85;;;3.45;;
21305;SDS011;10812;51.838;5.838;2023-05-07T13:36:18;4.80;;;3.33;;
21305;SDS011;10812;51.838;5.838;2023-05-07T13:38:47;5.15;;;3.53;;
21305;SDS011;10812;51.838;5.838;2023-05-07T13:41:15;4.85;;;3.25;;
21305;SDS011;10812;51.838;5.838;2023-05-07T13:43:44;4.28;;;3.45;;
21305;SDS011;10812;51.838;5.838;2023-05-07T13:46:12;5.15;;;3.85;;
21305;SDS011;10812;51.838;5.838;2023-05-07T13:48:40;3.80;;;3.42;;
21305;SDS011;10812;51.838;5.838;2023-05-07T13:51:09;3.83;;;3.50;;
21305;SDS011;10812;51.838;5.838;2023-05-07T13:53:37;4.78;;;3.38;;
21305;SDS011;10812;51.838;5.838;2023-05-07T13:56:05;5.13;;;3.88;;
21305;SDS011;10812;51.838;5.838;2023-05-07T13:58:33;4.80;;;3.90;;
21305;SDS011;10812;51.838;5.838;2023-05-07T14:01:15;5.53;;;4.13;;
21305;SDS011;10812;51.838;5.838;2023-05-07T14:03:43;3.92;;;3.63;;
21305;SDS011;10812;51.838;5.838;2023-05-07T14:06:11;3.75;;;3.40;;
21305;SDS011;10812;51.838;5.838;2023-05-07T14:08:40;4.68;;;3.03;;
21305;SDS011;10812;51.838;5.838;2023-05-07T14:11:08;4.30;;;3.85;;
21305;SDS011;10812;51.838;5.838;2023-05-07T14:13:36;3.90;;;3.13;;
21305;SDS011;10812;51.838;5.838;2023-05-07T14:16:04;4.53;;;3.20;;
21305;SDS011;10812;51.838;5.838;2023-05-07T14:18:34;3.95;;;3.40;;
21305;SDS011;10812;51.838;5.838;2023-05-07T14:21:04;4.22;;;3.00;;
21305;SDS011;10812;51.838;5.838;2023-05-07T14:23:33;4.25;;;3.38;;
21305;SDS011;10812;51.838;5.838;2023-05-07T14:26:02;4.75;;;3.10;;
21305;SDS011;10812;51.838;5.838;2023-05-07T14:28:30;3.53;;;2.90;;
21305;SDS011;10812;51.838;5.838;2023-05-07T14:30:58;3.80;;;3.30;;
21305;SDS011;10812;51.838;5.838;2023-05-07T14:33:27;3.15;;;2.85;;
21305;SDS011;10812;51.838;5.838;2023-05-07T14:35:56;3.30;;;2.97;;
21305;SDS011;10812;51.838;5.838;2023-05-07T14:38:24;2.17;;;1.80;;
21305;SDS011;10812;51.838;5.838;2023-05-07T14:40:53;2.28;;;1.23;;
21305;SDS011;10812;51.838;5.838;2023-05-07T14:43:22;2.58;;;0.90;;
21305;SDS011;10812;51.838;5.838;2023-05-07T14:45:50;1.08;;;0.82;;
21305;SDS011;10812;51.838;5.838;2023-05-07T14:48:19;0.70;;;0.70;;
21305;SDS011;10812;51.838;5.838;2023-05-07T14:50:47;0.68;;;0.55;;
21305;SDS011;10812;51.838;5.838;2023-05-07T14:53:17;0.80;;;0.80;;
21305;SDS011;10812;51.838;5.838;2023-05-07T14:55:45;1.35;;;1.05;;
21305;SDS011;10812;51.838;5.838;2023-05-07T14:58:14;1.02;;;0.90;;
21305;SDS011;10812;51.838;5.838;2023-05-07T15:00:42;1.52;;;1.00;;
21305;SDS011;10812;51.838;5.838;2023-05-07T15:03:10;3.42;;;1.20;;
21305;SDS011;10812;51.838;5.838;2023-05-07T15:05:39;1.30;;;1.20;;
21305;SDS011;10812;51.838;5.838;2023-05-07T15:08:08;4.60;;;1.85;;
21305;SDS011;10812;51.838;5.838;2023-05-07T15:10:38;6.60;;;2.58;;
21305;SDS011;10812;51.838;5.838;2023-05-07T15:13:08;7.65;;;3.20;;
21305;SDS011;10812;51.838;5.838;2023-05-07T15:15:41;5.60;;;2.20;;
21305;SDS011;10812;51.838;5.838;2023-05-07T15:18:10;5.68;;;3.10;;
21305;SDS011;10812;51.838;5.838;2023-05-07T15:20:38;5.53;;;3.40;;
21305;SDS011;10812;51.838;5.838;2023-05-07T15:23:07;5.80;;;2.85;;
21305;SDS011;10812;51.838;5.838;2023-05-07T15:25:39;6.10;;;2.78;;
21305;SDS011;10812;51.838;5.838;2023-05-07T15:28:08;4.75;;;2.92;;
21305;SDS011;10812;51.838;5.838;2023-05-07T15:30:36;4.57;;;2.72;;
21305;SDS011;10812;51.838;5.838;2023-05-07T15:33:05;7.00;;;3.42;;
21305;SDS011;10812;51.838;5.838;2023-05-07T15:35:33;5.38;;;3.03;;
21305;SDS011;10812;51.838;5.838;2023-05-07T15:38:01;6.43;;;3.13;;
21305;SDS011;10812;51.838;5.838;2023-05-07T15:40:30;7.03;;;3.88;;
21305;SDS011;10812;51.838;5.838;2023-05-07T15:43:00;2.30;;;2.10;;
21305;SDS011;10812;51.838;5.838;2023-05-07T15:45:28;5.22;;;2.45;;
21305;SDS011;10812;51.838;5.838;2023-05-07T15:47:57;3.45;;;2.13;;
21305;SDS011;10812;51.838;5.838;2023-05-07T15:50:25;3.38;;;2.40;;
21305;SDS011;10812;51.838;5.838;2023-05-07T15:52:54;5.45;;;3.63;;
21305;SDS011;10812;51.838;5.838;2023-05-07T15:55:23;1.85;;;1.70;;
21305;SDS011;10812;51.838;5.838;2023-05-07T16:09:26;3.03;;;1.92;;
21305;SDS011;10812;51.838;5.838;2023-05-07T16:11:54;4.57;;;2.10;;
21305;SDS011;10812;51.838;5.838;2023-05-07T16:14:22;3.97;;;2.30;;
21305;SDS011;10812;51.838;5.838;2023-05-07T16:16:51;3.92;;;2.97;;
21305;SDS011;10812;51.838;5.838;2023-05-07T16:19:22;3.33;;;2.28;;
21305;SDS011;10812;51.838;5.838;2023-05-07T16:21:50;4.55;;;2.30;;
21305;SDS011;10812;51.838;5.838;2023-05-07T16:24:18;5.20;;;2.83;;
21305;SDS011;10812;51.838;5.838;2023-05-07T16:26:47;3.67;;;2.92;;
21305;SDS011;10812;51.838;5.838;2023-05-07T16:29:16;3.85;;;2.20;;